sensor_id;sensor_type;location;lat;lon;timestamp;temperature;humidity
25332;DHT22;13284;52.748;13.452;2023-04-15T00:00:03;8.30;99.90
25332;DHT22;13284;52.748;13.452;2023-04-15T00:02:29;8.40;99.90
25332;DHT22;13284;52.748;13.452;2023-04-15T00:04:55;8.30;99.90
25332;DHT22;13284;52.748;13.452;2023-04-15T00:07:20;8.30;99.90
25332;DHT22;13284;52.748;13.452;2023-04-15T00:09:46;8.30;99.90
25332;DHT22;13284;52.748;13.452;2023-04-15T00:12:11;8.40;99.90
25332;DHT22;13284;52.748;13.452;2023-04-15T00:14:37;8.30;99.90
25332;DHT22;13284;52.748;13.452;2023-04-15T00:17:03;8.30;99.90
25332;DHT22;13284;52.748;13.452;2023-04-15T00:19:30;8.30;99.90
25332;DHT22;13284;52.748;13.452;2023-04-15T00:21:55;8.30;99.90
25332;DHT22;13284;52.748;13.452;2023-04-15T00:24:21;8.30;99.90
25332;DHT22;13284;52.748;13.452;2023-04-15T00:26:47;8.30;99.90
25332;DHT22;13284;52.748;13.452;2023-04-15T00:29:13;8.30;99.90
25332;DHT22;13284;52.748;13.452;2023-04-15T00:31:39;8.30;99.90
25332;DHT22;13284;52.748;13.452;2023-04-15T00:34:05;8.30;99.90
25332;DHT22;13284;52.748;13.452;2023-04-15T00:36:30;8.30;99.90
25332;DHT22;13284;52.748;13.452;2023-04-15T00:38:58;8.40;99.90
25332;DHT22;13284;52.748;13.452;2023-04-15T00:41:24;8.30;99.90
25332;DHT22;13284;52.748;13.452;2023-04-15T00:43:49;8.30;99.90
25332;DHT22;13284;52.748;13.452;2023-04-15T00:46:16;8.30;99.90
25332;DHT22;13284;52.748;13.452;2023-04-15T00:48:45;8.30;99.90
25332;DHT22;13284;52.748;13.452;2023-04-15T00:51:11;8.30;99.90
25332;DHT22;13284;52.748;13.452;2023-04-15T00:53:37;8.30;99.90
25332;DHT22;13284;52.748;13.452;2023-04-15T00:56:03;8.30;99.90
25332;DHT22;13284;52.748;13.452;2023-04-15T00:58:29;8.30;99.90
25332;DHT22;13284;52.748;13.452;2023-04-15T01:00:55;8.30;99.90
25332;DHT22;13284;52.748;13.452;2023-04-15T01:03:21;8.30;99.90
25332;DHT22;13284;52.748;13.452;2023-04-15T01:05:47;8.30;99.90
25332;DHT22;13284;52.748;13.452;2023-04-15T01:08:14;8.30;99.90
25332;DHT22;13284;52.748;13.452;2023-04-15T01:10:40;8.20;99.90
25332;DHT22;13284;52.748;13.452;2023-04-15T01:13:06;8.30;99.90
25332;DHT22;13284;52.748;13.452;2023-04-15T01:15:32;8.20;99.90
25332;DHT22;13284;52.748;13.452;2023-04-15T01:18:01;8.20;99.90
25332;DHT22;13284;52.748;13.452;2023-04-15T01:20:28;8.30;99.90
25332;DHT22;13284;52.748;13.452;2023-04-15T01:22:54;8.30;99.90
25332;DHT22;13284;52.748;13.452;2023-04-15T01:25:32;8.20;99.90
25332;DHT22;13284;52.748;13.452;2023-04-15T01:27:58;8.20;99.90
25332;DHT22;13284;52.748;13.452;2023-04-15T01:30:24;8.30;99.90
25332;DHT22;13284;52.748;13.452;2023-04-15T01:32:50;8.20;99.90
25332;DHT22;13284;52.748;13.452;2023-04-15T01:35:16;8.20;99.90
25332;DHT22;13284;52.748;13.452;2023-04-15T01:37:42;8.20;99.90
25332;DHT22;13284;52.748;13.452;2023-04-15T01:40:08;8.20;99.90
25332;DHT22;13284;52.748;13.452;2023-04-15T01:42:35;8.20;99.90
25332;DHT22;13284;52.748;13.452;2023-04-15T01:45:01;8.20;99.90
25332;DHT22;13284;52.748;13.452;2023-04-15T01:47:27;8.20;99.90
25332;DHT22;13284;52.748;13.452;2023-04-15T01:49:52;8.30;99.90
25332;DHT22;13284;52.748;13.452;2023-04-15T01:52:18;8.20;99.90
25332;DHT22;13284;52.748;13.452;2023-04-15T01:54:43;8.20;99.90
25332;DHT22;13284;52.748;13.452;2023-04-15T01:57:09;8.20;99.90
25332;DHT22;13284;52.748;13.452;2023-04-15T01:59:34;8.20;99.90
25332;DHT22;13284;52.748;13.452;2023-04-15T02:02:00;8.20;99.90
25332;DHT22;13284;52.748;13.452;2023-04-15T02:04:26;8.20;99.90
25332;DHT22;13284;52.748;13.452;2023-04-15T02:06:52;8.20;99.90
25332;DHT22;13284;52.748;13.452;2023-04-15T02:09:18;8.20;99.90
25332;DHT22;13284;52.748;13.452;2023-04-15T02:11:44;8.20;99.90
25332;DHT22;13284;52.748;13.452;2023-04-15T02:14:10;8.20;99.90
25332;DHT22;13284;52.748;13.452;2023-04-15T02:16:35;8.20;99.90
25332;DHT22;13284;52.748;13.452;2023-04-15T02:19:01;8.20;99.90
25332;DHT22;13284;52.748;13.452;2023-04-15T02:21:26;8.20;99.90
25332;DHT22;13284;52.748;13.452;2023-04-15T02:23:52;8.20;99.90
25332;DHT22;13284;52.748;13.452;2023-04-15T02:26:18;8.20;99.90
25332;DHT22;13284;52.748;13.452;2023-04-15T02:28:45;8.20;99.90
25332;DHT22;13284;52.748;13.452;2023-04-15T02:31:13;8.20;99.90
25332;DHT22;13284;52.748;13.452;2023-04-15T02:33:39;8.20;99.90
25332;DHT22;13284;52.748;13.452;2023-04-15T02:36:05;8.20;99.90
25332;DHT22;13284;52.748;13.452;2023-04-15T02:38:32;8.20;99.90
25332;DHT22;13284;52.748;13.452;2023-04-15T02:40:57;8.20;99.90
25332;DHT22;13284;52.748;13.452;2023-04-15T02:43:23;8.20;99.90
25332;DHT22;13284;52.748;13.452;2023-04-15T02:45:48;8.30;99.90
25332;DHT22;13284;52.748;13.452;2023-04-15T02:48:14;8.20;99.90
25332;DHT22;13284;52.748;13.452;2023-04-15T02:50:42;8.20;99.90
25332;DHT22;13284;52.748;13.452;2023-04-15T02:53:07;8.20;99.90
25332;DHT22;13284;52.748;13.452;2023-04-15T02:55:33;8.30;99.90
25332;DHT22;13284;52.748;13.452;2023-04-15T02:57:58;8.30;99.90
25332;DHT22;13284;52.748;13.452;2023-04-15T03:00:25;8.30;99.90
25332;DHT22;13284;52.748;13.452;2023-04-15T03:02:56;8.30;99.90
25332;DHT22;13284;52.748;13.452;2023-04-15T03:05:21;8.30;99.90
25332;DHT22;13284;52.748;13.452;2023-04-15T03:07:50;8.30;99.90
25332;DHT22;13284;52.748;13.452;2023-04-15T03:10:16;8.30;99.90
25332;DHT22;13284;52.748;13.452;2023-04-15T03:12:42;8.30;99.90
25332;DHT22;13284;52.748;13.452;2023-04-15T03:15:08;8.30;99.90
25332;DHT22;13284;52.748;13.452;2023-04-15T03:17:34;8.30;99.90
25332;DHT22;13284;52.748;13.452;2023-04-15T03:20:01;8.30;99.90
25332;DHT22;13284;52.748;13.452;2023-04-15T03:22:27;8.40;99.90
25332;DHT22;13284;52.748;13.452;2023-04-15T03:24:53;8.30;99.90
25332;DHT22;13284;52.748;13.452;2023-04-15T03:27:19;8.40;99.90
25332;DHT22;13284;52.748;13.452;2023-04-15T03:29:45;8.30;99.90
25332;DHT22;13284;52.748;13.452;2023-04-15T03:32:10;8.40;99.90
25332;DHT22;13284;52.748;13.452;2023-04-15T03:34:37;8.40;99.90
25332;DHT22;13284;52.748;13.452;2023-04-15T03:37:02;8.40;99.90
25332;DHT22;13284;52.748;13.452;2023-04-15T03:39:28;8.40;99.90
25332;DHT22;13284;52.748;13.452;2023-04-15T03:41:53;8.40;99.90
25332;DHT22;13284;52.748;13.452;2023-04-15T03:44:19;8.40;99.90
25332;DHT22;13284;52.748;13.452;2023-04-15T03:46:45;8.40;99.90
25332;DHT22;13284;52.748;13.452;2023-04-15T03:49:10;8.40;99.90
25332;DHT22;13284;52.748;13.452;2023-04-15T03:51:36;8.40;99.90
25332;DHT22;13284;52.748;13.452;2023-04-15T03:54:01;8.40;99.90
25332;DHT22;13284;52.748;13.452;2023-04-15T03:56:27;8.40;99.90
25332;DHT22;13284;52.748;13.452;2023-04-15T03:58:53;8.40;99.90
25332;DHT22;13284;52.748;13.452;2023-04-15T04:01:18;8.40;99.90
25332;DHT22;13284;52.748;13.452;2023-04-15T04:03:44;8.40;99.90
25332;DHT22;13284;52.748;13.452;2023-04-15T04:06:10;8.40;99.90
25332;DHT22;13284;52.748;13.452;2023-04-15T04:08:36;8.40;99.90
25332;DHT22;13284;52.748;13.452;2023-04-15T04:11:02;8.40;99.90
25332;DHT22;13284;52.748;13.452;2023-04-15T04:13:28;8.40;99.90
25332;DHT22;13284;52.748;13.452;2023-04-15T04:15:53;8.40;99.90
25332;DHT22;13284;52.748;13.452;2023-04-15T04:18:19;8.40;99.90
25332;DHT22;13284;52.748;13.452;2023-04-15T04:20:44;8.40;99.90
25332;DHT22;13284;52.748;13.452;2023-04-15T04:23:10;8.40;99.90
25332;DHT22;13284;52.748;13.452;2023-04-15T04:25:36;8.50;99.90
25332;DHT22;13284;52.748;13.452;2023-04-15T04:28:02;8.50;99.90
25332;DHT22;13284;52.748;13.452;2023-04-15T04:30:27;8.50;99.90
25332;DHT22;13284;52.748;13.452;2023-04-15T04:32:53;8.50;99.90
25332;DHT22;13284;52.748;13.452;2023-04-15T04:35:19;8.50;99.90
25332;DHT22;13284;52.748;13.452;2023-04-15T04:37:45;8.50;99.90
25332;DHT22;13284;52.748;13.452;2023-04-15T04:40:10;8.50;99.90
25332;DHT22;13284;52.748;13.452;2023-04-15T04:42:36;8.50;99.90
25332;DHT22;13284;52.748;13.452;2023-04-15T04:45:02;8.50;99.90
25332;DHT22;13284;52.748;13.452;2023-04-15T04:47:27;8.50;99.90
25332;DHT22;13284;52.748;13.452;2023-04-15T04:49:54;8.50;99.90
25332;DHT22;13284;52.748;13.452;2023-04-15T04:52:19;8.60;99.90
25332;DHT22;13284;52.748;13.452;2023-04-15T04:54:45;8.60;99.90
25332;DHT22;13284;52.748;13.452;2023-04-15T04:57:11;8.60;99.90
25332;DHT22;13284;52.748;13.452;2023-04-15T04:59:38;8.60;99.90
25332;DHT22;13284;52.748;13.452;2023-04-15T05:02:03;8.60;99.90
25332;DHT22;13284;52.748;13.452;2023-04-15T05:04:29;8.70;99.90
25332;DHT22;13284;52.748;13.452;2023-04-15T05:06:56;8.70;99.90
25332;DHT22;13284;52.748;13.452;2023-04-15T05:09:22;8.70;99.90
25332;DHT22;13284;52.748;13.452;2023-04-15T05:11:47;8.70;99.90
25332;DHT22;13284;52.748;13.452;2023-04-15T05:14:13;8.80;99.90
25332;DHT22;13284;52.748;13.452;2023-04-15T05:16:38;8.80;99.90
25332;DHT22;13284;52.748;13.452;2023-04-15T05:19:04;8.90;99.90
25332;DHT22;13284;52.748;13.452;2023-04-15T05:21:29;8.90;99.90
25332;DHT22;13284;52.748;13.452;2023-04-15T05:23:56;8.90;99.90
25332;DHT22;13284;52.748;13.452;2023-04-15T05:26:21;8.90;99.90
25332;DHT22;13284;52.748;13.452;2023-04-15T05:28:48;9.00;99.90
25332;DHT22;13284;52.748;13.452;2023-04-15T05:31:14;9.00;99.90
25332;DHT22;13284;52.748;13.452;2023-04-15T05:33:40;9.00;99.90
25332;DHT22;13284;52.748;13.452;2023-04-15T05:36:06;9.00;99.90
25332;DHT22;13284;52.748;13.452;2023-04-15T05:38:31;9.10;99.90
25332;DHT22;13284;52.748;13.452;2023-04-15T05:40:57;9.10;99.90
25332;DHT22;13284;52.748;13.452;2023-04-15T05:43:23;9.10;99.90
25332;DHT22;13284;52.748;13.452;2023-04-15T05:45:48;9.10;99.90
25332;DHT22;13284;52.748;13.452;2023-04-15T05:48:14;9.20;99.90
25332;DHT22;13284;52.748;13.452;2023-04-15T05:50:40;9.20;99.90
25332;DHT22;13284;52.748;13.452;2023-04-15T05:53:07;9.20;99.90
25332;DHT22;13284;52.748;13.452;2023-04-15T05:55:32;9.30;99.90
25332;DHT22;13284;52.748;13.452;2023-04-15T05:57:58;9.30;99.90
25332;DHT22;13284;52.748;13.452;2023-04-15T06:00:23;9.30;99.90
25332;DHT22;13284;52.748;13.452;2023-04-15T06:02:49;9.40;99.90
25332;DHT22;13284;52.748;13.452;2023-04-15T06:05:15;9.40;99.90
25332;DHT22;13284;52.748;13.452;2023-04-15T06:07:40;9.50;99.90
25332;DHT22;13284;52.748;13.452;2023-04-15T06:10:08;9.50;99.90
25332;DHT22;13284;52.748;13.452;2023-04-15T06:12:34;9.50;99.90
25332;DHT22;13284;52.748;13.452;2023-04-15T06:14:59;9.50;99.90
25332;DHT22;13284;52.748;13.452;2023-04-15T06:17:25;9.50;99.90
25332;DHT22;13284;52.748;13.452;2023-04-15T06:19:51;9.60;99.90
25332;DHT22;13284;52.748;13.452;2023-04-15T06:22:21;9.60;99.90
25332;DHT22;13284;52.748;13.452;2023-04-15T06:24:47;9.70;99.90
25332;DHT22;13284;52.748;13.452;2023-04-15T06:27:14;9.70;99.90
25332;DHT22;13284;52.748;13.452;2023-04-15T06:29:40;9.70;99.90
25332;DHT22;13284;52.748;13.452;2023-04-15T06:32:06;9.80;99.90
25332;DHT22;13284;52.748;13.452;2023-04-15T06:34:32;9.80;99.90
25332;DHT22;13284;52.748;13.452;2023-04-15T06:36:57;9.80;99.90
25332;DHT22;13284;52.748;13.452;2023-04-15T06:39:23;9.80;99.90
25332;DHT22;13284;52.748;13.452;2023-04-15T06:41:48;9.80;99.90
25332;DHT22;13284;52.748;13.452;2023-04-15T06:44:14;9.90;99.90
25332;DHT22;13284;52.748;13.452;2023-04-15T06:46:40;10.00;99.90
25332;DHT22;13284;52.748;13.452;2023-04-15T06:49:05;10.10;99.90
25332;DHT22;13284;52.748;13.452;2023-04-15T06:51:31;10.30;99.90
25332;DHT22;13284;52.748;13.452;2023-04-15T06:53:57;10.30;99.90
25332;DHT22;13284;52.748;13.452;2023-04-15T06:56:22;10.30;99.90
25332;DHT22;13284;52.748;13.452;2023-04-15T06:58:48;10.30;99.90
25332;DHT22;13284;52.748;13.452;2023-04-15T07:01:13;10.40;99.90
25332;DHT22;13284;52.748;13.452;2023-04-15T07:03:39;10.40;99.90
25332;DHT22;13284;52.748;13.452;2023-04-15T07:06:06;10.40;99.90
25332;DHT22;13284;52.748;13.452;2023-04-15T07:08:32;10.30;99.90
25332;DHT22;13284;52.748;13.452;2023-04-15T07:10:59;10.30;99.90
25332;DHT22;13284;52.748;13.452;2023-04-15T07:13:25;10.30;99.90
25332;DHT22;13284;52.748;13.452;2023-04-15T07:15:50;10.30;99.90
25332;DHT22;13284;52.748;13.452;2023-04-15T07:18:16;10.30;99.90
25332;DHT22;13284;52.748;13.452;2023-04-15T07:20:42;10.20;99.90
25332;DHT22;13284;52.748;13.452;2023-04-15T07:23:07;10.20;99.90
25332;DHT22;13284;52.748;13.452;2023-04-15T07:25:33;10.30;99.90
25332;DHT22;13284;52.748;13.452;2023-04-15T07:27:59;10.30;99.90
25332;DHT22;13284;52.748;13.452;2023-04-15T07:30:24;10.20;99.90
25332;DHT22;13284;52.748;13.452;2023-04-15T07:32:50;10.30;99.90
25332;DHT22;13284;52.748;13.452;2023-04-15T07:35:15;10.40;99.90
25332;DHT22;13284;52.748;13.452;2023-04-15T07:37:41;10.50;99.90
25332;DHT22;13284;52.748;13.452;2023-04-15T07:40:08;10.60;99.90
25332;DHT22;13284;52.748;13.452;2023-04-15T07:42:34;10.80;99.90
25332;DHT22;13284;52.748;13.452;2023-04-15T07:45:00;10.90;99.90
25332;DHT22;13284;52.748;13.452;2023-04-15T07:47:25;11.10;99.90
25332;DHT22;13284;52.748;13.452;2023-04-15T07:49:51;11.00;99.90
25332;DHT22;13284;52.748;13.452;2023-04-15T07:52:17;11.20;99.90
25332;DHT22;13284;52.748;13.452;2023-04-15T07:54:43;11.20;99.90
25332;DHT22;13284;52.748;13.452;2023-04-15T07:57:09;11.20;99.90
25332;DHT22;13284;52.748;13.452;2023-04-15T07:59:35;11.30;99.90
25332;DHT22;13284;52.748;13.452;2023-04-15T08:02:01;11.40;99.90
25332;DHT22;13284;52.748;13.452;2023-04-15T08:04:26;11.30;99.90
25332;DHT22;13284;52.748;13.452;2023-04-15T08:06:52;11.20;99.90
25332;DHT22;13284;52.748;13.452;2023-04-15T08:09:19;11.30;99.90
25332;DHT22;13284;52.748;13.452;2023-04-15T08:11:48;11.40;99.90
25332;DHT22;13284;52.748;13.452;2023-04-15T08:14:15;11.50;99.90
25332;DHT22;13284;52.748;13.452;2023-04-15T08:16:41;11.50;99.90
25332;DHT22;13284;52.748;13.452;2023-04-15T08:19:06;11.50;99.90
25332;DHT22;13284;52.748;13.452;2023-04-15T08:21:32;11.40;99.90
25332;DHT22;13284;52.748;13.452;2023-04-15T08:23:58;11.50;99.90
25332;DHT22;13284;52.748;13.452;2023-04-15T08:26:24;11.50;99.90
25332;DHT22;13284;52.748;13.452;2023-04-15T08:28:50;11.60;99.90
25332;DHT22;13284;52.748;13.452;2023-04-15T08:31:20;11.50;99.90
25332;DHT22;13284;52.748;13.452;2023-04-15T08:33:46;11.50;99.90
25332;DHT22;13284;52.748;13.452;2023-04-15T08:36:12;11.40;99.90
25332;DHT22;13284;52.748;13.452;2023-04-15T08:38:38;11.40;99.90
25332;DHT22;13284;52.748;13.452;2023-04-15T08:41:10;11.30;99.90
25332;DHT22;13284;52.748;13.452;2023-04-15T08:43:45;11.40;99.90
25332;DHT22;13284;52.748;13.452;2023-04-15T08:46:12;11.40;99.90
25332;DHT22;13284;52.748;13.452;2023-04-15T08:48:38;11.50;99.90
25332;DHT22;13284;52.748;13.452;2023-04-15T08:51:05;11.40;99.90
25332;DHT22;13284;52.748;13.452;2023-04-15T08:53:31;11.40;99.90
25332;DHT22;13284;52.748;13.452;2023-04-15T08:55:57;11.40;99.90
25332;DHT22;13284;52.748;13.452;2023-04-15T08:58:24;11.40;99.90
25332;DHT22;13284;52.748;13.452;2023-04-15T09:00:50;11.50;99.90
25332;DHT22;13284;52.748;13.452;2023-04-15T09:03:16;11.50;99.90
25332;DHT22;13284;52.748;13.452;2023-04-15T09:05:42;11.40;99.90
25332;DHT22;13284;52.748;13.452;2023-04-15T09:08:08;11.50;99.90
25332;DHT22;13284;52.748;13.452;2023-04-15T09:10:33;11.50;99.90
25332;DHT22;13284;52.748;13.452;2023-04-15T09:13:00;11.50;99.90
25332;DHT22;13284;52.748;13.452;2023-04-15T09:15:26;11.50;99.90
25332;DHT22;13284;52.748;13.452;2023-04-15T09:17:53;11.60;99.90
25332;DHT22;13284;52.748;13.452;2023-04-15T09:20:19;11.60;99.90
25332;DHT22;13284;52.748;13.452;2023-04-15T09:22:46;11.50;99.90
25332;DHT22;13284;52.748;13.452;2023-04-15T09:27:50;11.60;99.90
25332;DHT22;13284;52.748;13.452;2023-04-15T09:30:16;11.60;99.90
25332;DHT22;13284;52.748;13.452;2023-04-15T09:32:53;11.60;99.90
25332;DHT22;13284;52.748;13.452;2023-04-15T09:35:19;11.60;99.90
25332;DHT22;13284;52.748;13.452;2023-04-15T09:37:47;11.50;99.90
25332;DHT22;13284;52.748;13.452;2023-04-15T09:40:13;11.50;99.90
25332;DHT22;13284;52.748;13.452;2023-04-15T09:42:54;11.60;99.90
25332;DHT22;13284;52.748;13.452;2023-04-15T09:45:21;11.60;99.90
25332;DHT22;13284;52.748;13.452;2023-04-15T09:47:47;11.50;99.90
25332;DHT22;13284;52.748;13.452;2023-04-15T09:50:12;11.40;99.90
25332;DHT22;13284;52.748;13.452;2023-04-15T09:52:43;11.40;99.90
25332;DHT22;13284;52.748;13.452;2023-04-15T09:55:10;11.50;99.90
25332;DHT22;13284;52.748;13.452;2023-04-15T09:57:36;11.50;99.90
25332;DHT22;13284;52.748;13.452;2023-04-15T10:00:06;11.50;99.90
25332;DHT22;13284;52.748;13.452;2023-04-15T10:02:33;11.40;99.90
25332;DHT22;13284;52.748;13.452;2023-04-15T10:05:00;11.30;99.90
25332;DHT22;13284;52.748;13.452;2023-04-15T10:07:26;11.40;99.90
25332;DHT22;13284;52.748;13.452;2023-04-15T10:09:52;11.40;99.90
25332;DHT22;13284;52.748;13.452;2023-04-15T10:12:18;11.40;99.90
25332;DHT22;13284;52.748;13.452;2023-04-15T10:14:48;11.40;99.90
25332;DHT22;13284;52.748;13.452;2023-04-15T10:17:17;11.30;99.90
25332;DHT22;13284;52.748;13.452;2023-04-15T10:19:43;11.40;99.90
25332;DHT22;13284;52.748;13.452;2023-04-15T10:22:09;11.40;99.90
25332;DHT22;13284;52.748;13.452;2023-04-15T10:24:34;11.50;99.90
25332;DHT22;13284;52.748;13.452;2023-04-15T10:27:02;11.50;99.90
25332;DHT22;13284;52.748;13.452;2023-04-15T10:29:28;11.50;99.90
25332;DHT22;13284;52.748;13.452;2023-04-15T10:31:55;11.50;99.90
25332;DHT22;13284;52.748;13.452;2023-04-15T10:34:23;11.40;99.90
25332;DHT22;13284;52.748;13.452;2023-04-15T10:36:49;11.40;99.90
25332;DHT22;13284;52.748;13.452;2023-04-15T10:42:09;11.40;99.90
25332;DHT22;13284;52.748;13.452;2023-04-15T10:44:41;11.50;99.90
25332;DHT22;13284;52.748;13.452;2023-04-15T10:47:18;11.50;99.90
25332;DHT22;13284;52.748;13.452;2023-04-15T10:52:11;11.50;99.90
25332;DHT22;13284;52.748;13.452;2023-04-15T10:54:38;11.50;99.90
25332;DHT22;13284;52.748;13.452;2023-04-15T10:59:31;11.50;99.90
25332;DHT22;13284;52.748;13.452;2023-04-15T11:02:00;11.50;99.90
25332;DHT22;13284;52.748;13.452;2023-04-15T11:04:55;11.40;99.90
25332;DHT22;13284;52.748;13.452;2023-04-15T11:07:40;11.40;99.90
25332;DHT22;13284;52.748;13.452;2023-04-15T11:12:38;11.40;99.90
25332;DHT22;13284;52.748;13.452;2023-04-15T11:15:33;11.50;99.90
25332;DHT22;13284;52.748;13.452;2023-04-15T11:20:46;11.30;99.90
25332;DHT22;13284;52.748;13.452;2023-04-15T11:23:19;11.30;99.90
25332;DHT22;13284;52.748;13.452;2023-04-15T11:25:54;11.30;99.90
25332;DHT22;13284;52.748;13.452;2023-04-15T11:28:19;11.30;99.90
25332;DHT22;13284;52.748;13.452;2023-04-15T11:30:45;11.30;99.90
25332;DHT22;13284;52.748;13.452;2023-04-15T11:33:11;11.40;99.90
25332;DHT22;13284;52.748;13.452;2023-04-15T11:35:40;11.30;99.90
25332;DHT22;13284;52.748;13.452;2023-04-15T11:38:12;11.30;99.90
25332;DHT22;13284;52.748;13.452;2023-04-15T11:40:39;11.30;99.90
25332;DHT22;13284;52.748;13.452;2023-04-15T11:43:12;11.20;99.90
25332;DHT22;13284;52.748;13.452;2023-04-15T11:45:48;11.20;99.90
25332;DHT22;13284;52.748;13.452;2023-04-15T11:48:13;11.20;99.90
25332;DHT22;13284;52.748;13.452;2023-04-15T11:50:40;11.30;99.90
25332;DHT22;13284;52.748;13.452;2023-04-15T11:53:10;11.30;99.90
25332;DHT22;13284;52.748;13.452;2023-04-15T11:55:47;11.30;99.90
25332;DHT22;13284;52.748;13.452;2023-04-15T11:58:18;11.30;99.90
25332;DHT22;13284;52.748;13.452;2023-04-15T12:00:58;11.20;99.90
25332;DHT22;13284;52.748;13.452;2023-04-15T12:03:38;11.20;99.90
25332;DHT22;13284;52.748;13.452;2023-04-15T12:16:33;11.10;99.90
25332;DHT22;13284;52.748;13.452;2023-04-15T12:19:01;11.10;99.90
25332;DHT22;13284;52.748;13.452;2023-04-15T12:21:34;11.10;99.90
25332;DHT22;13284;52.748;13.452;2023-04-15T12:24:03;11.10;99.90
25332;DHT22;13284;52.748;13.452;2023-04-15T12:29:07;11.20;99.90
25332;DHT22;13284;52.748;13.452;2023-04-15T12:31:34;11.20;99.90
25332;DHT22;13284;52.748;13.452;2023-04-15T12:34:00;11.30;99.90
25332;DHT22;13284;52.748;13.452;2023-04-15T12:36:27;11.30;99.90
25332;DHT22;13284;52.748;13.452;2023-04-15T12:38:53;11.30;99.90
25332;DHT22;13284;52.748;13.452;2023-04-15T12:41:19;11.30;99.90
25332;DHT22;13284;52.748;13.452;2023-04-15T12:43:48;11.20;99.90
25332;DHT22;13284;52.748;13.452;2023-04-15T12:46:13;11.20;99.90
25332;DHT22;13284;52.748;13.452;2023-04-15T12:48:39;11.20;99.90
25332;DHT22;13284;52.748;13.452;2023-04-15T12:51:05;11.30;99.90
25332;DHT22;13284;52.748;13.452;2023-04-15T12:53:31;11.20;99.90
25332;DHT22;13284;52.748;13.452;2023-04-15T12:55:56;11.20;99.90
25332;DHT22;13284;52.748;13.452;2023-04-15T12:58:22;11.30;99.90
25332;DHT22;13284;52.748;13.452;2023-04-15T13:00:47;11.30;99.90
25332;DHT22;13284;52.748;13.452;2023-04-15T13:03:14;11.20;99.90
25332;DHT22;13284;52.748;13.452;2023-04-15T13:05:40;11.20;99.90
25332;DHT22;13284;52.748;13.452;2023-04-15T13:08:06;11.20;99.90
25332;DHT22;13284;52.748;13.452;2023-04-15T13:10:32;11.20;99.90
25332;DHT22;13284;52.748;13.452;2023-04-15T13:12:58;11.30;99.90
25332;DHT22;13284;52.748;13.452;2023-04-15T13:15:23;11.30;99.90
25332;DHT22;13284;52.748;13.452;2023-04-15T13:17:56;11.20;99.90
25332;DHT22;13284;52.748;13.452;2023-04-15T13:20:24;11.20;99.90
25332;DHT22;13284;52.748;13.452;2023-04-15T13:22:51;11.20;99.90
25332;DHT22;13284;52.748;13.452;2023-04-15T13:25:17;11.20;99.90
25332;DHT22;13284;52.748;13.452;2023-04-15T13:27:42;11.10;99.90
25332;DHT22;13284;52.748;13.452;2023-04-15T13:30:08;11.10;99.90
25332;DHT22;13284;52.748;13.452;2023-04-15T13:32:34;11.10;99.90
25332;DHT22;13284;52.748;13.452;2023-04-15T13:35:00;11.00;99.90
25332;DHT22;13284;52.748;13.452;2023-04-15T13:37:26;11.00;99.90
25332;DHT22;13284;52.748;13.452;2023-04-15T13:39:52;11.10;99.90
25332;DHT22;13284;52.748;13.452;2023-04-15T13:42:18;11.00;99.90
25332;DHT22;13284;52.748;13.452;2023-04-15T13:44:43;11.00;99.90
25332;DHT22;13284;52.748;13.452;2023-04-15T13:47:09;11.00;99.90
25332;DHT22;13284;52.748;13.452;2023-04-15T13:49:35;10.90;99.90
25332;DHT22;13284;52.748;13.452;2023-04-15T13:52:00;10.90;99.90
25332;DHT22;13284;52.748;13.452;2023-04-15T13:54:26;10.90;99.90
25332;DHT22;13284;52.748;13.452;2023-04-15T13:56:53;10.90;99.90
25332;DHT22;13284;52.748;13.452;2023-04-15T13:59:18;10.90;99.90
25332;DHT22;13284;52.748;13.452;2023-04-15T14:01:44;10.90;99.90
25332;DHT22;13284;52.748;13.452;2023-04-15T14:04:09;10.90;99.90
25332;DHT22;13284;52.748;13.452;2023-04-15T14:06:35;10.90;99.90
25332;DHT22;13284;52.748;13.452;2023-04-15T14:09:00;10.90;99.90
25332;DHT22;13284;52.748;13.452;2023-04-15T14:11:26;10.80;99.90
25332;DHT22;13284;52.748;13.452;2023-04-15T14:13:52;10.80;99.90
25332;DHT22;13284;52.748;13.452;2023-04-15T14:16:17;10.80;99.90
25332;DHT22;13284;52.748;13.452;2023-04-15T14:18:43;10.80;99.90
25332;DHT22;13284;52.748;13.452;2023-04-15T14:21:09;10.80;99.90
25332;DHT22;13284;52.748;13.452;2023-04-15T14:23:34;10.80;99.90
25332;DHT22;13284;52.748;13.452;2023-04-15T14:26:00;10.80;99.90
25332;DHT22;13284;52.748;13.452;2023-04-15T14:28:25;10.70;99.90
25332;DHT22;13284;52.748;13.452;2023-04-15T14:30:51;10.70;99.90
25332;DHT22;13284;52.748;13.452;2023-04-15T14:33:18;10.70;99.90
25332;DHT22;13284;52.748;13.452;2023-04-15T14:35:43;10.70;99.90
25332;DHT22;13284;52.748;13.452;2023-04-15T14:38:09;10.70;99.90
25332;DHT22;13284;52.748;13.452;2023-04-15T14:40:35;10.70;99.90
25332;DHT22;13284;52.748;13.452;2023-04-15T14:43:01;10.60;99.90
25332;DHT22;13284;52.748;13.452;2023-04-15T14:45:26;10.60;99.90
25332;DHT22;13284;52.748;13.452;2023-04-15T14:47:52;10.60;99.90
25332;DHT22;13284;52.748;13.452;2023-04-15T14:50:18;10.60;99.90
25332;DHT22;13284;52.748;13.452;2023-04-15T14:52:46;10.60;99.90
25332;DHT22;13284;52.748;13.452;2023-04-15T14:55:12;10.60;99.90
25332;DHT22;13284;52.748;13.452;2023-04-15T14:57:41;10.60;99.90
25332;DHT22;13284;52.748;13.452;2023-04-15T15:00:09;10.60;99.90
25332;DHT22;13284;52.748;13.452;2023-04-15T15:02:35;10.60;99.90
25332;DHT22;13284;52.748;13.452;2023-04-15T15:05:01;10.60;99.90
25332;DHT22;13284;52.748;13.452;2023-04-15T15:07:27;10.60;99.90
25332;DHT22;13284;52.748;13.452;2023-04-15T15:09:53;10.60;99.90
25332;DHT22;13284;52.748;13.452;2023-04-15T15:12:19;10.60;99.90
25332;DHT22;13284;52.748;13.452;2023-04-15T15:14:49;10.60;99.90
25332;DHT22;13284;52.748;13.452;2023-04-15T15:17:15;10.50;99.90
25332;DHT22;13284;52.748;13.452;2023-04-15T15:19:43;10.60;99.90
25332;DHT22;13284;52.748;13.452;2023-04-15T15:22:09;10.60;99.90
25332;DHT22;13284;52.748;13.452;2023-04-15T15:24:35;10.60;99.90
25332;DHT22;13284;52.748;13.452;2023-04-15T15:27:01;10.60;99.90
25332;DHT22;13284;52.748;13.452;2023-04-15T15:29:27;10.60;99.90
25332;DHT22;13284;52.748;13.452;2023-04-15T15:31:52;10.60;99.90
25332;DHT22;13284;52.748;13.452;2023-04-15T15:34:18;10.60;99.90
25332;DHT22;13284;52.748;13.452;2023-04-15T15:36:43;10.60;99.90
25332;DHT22;13284;52.748;13.452;2023-04-15T15:39:09;10.60;99.90
25332;DHT22;13284;52.748;13.452;2023-04-15T15:41:35;10.60;99.90
25332;DHT22;13284;52.748;13.452;2023-04-15T15:44:01;10.60;99.90
25332;DHT22;13284;52.748;13.452;2023-04-15T15:46:27;10.60;99.90